Flight Track Log - Related Links

Times and Time Zones

All times are in EDT time to prevent confusion due to time zone crossing. See the N855BC flight status page for this flight to view local times or setup timezone preferences in your user account.

Time Position Orientation Groundspeed Altitude Reporting Facility
EDT Latitude Longitude Course Direction KTS MPH feet Rate Location/Type
Thu 09:35:10 AM 26.2003 -80.1522 82° East 159 183 500  Level Miami Center
Thu 09:36:18 AM 26.2089 -80.0856 82° East 209 241 1,900 1,385 Climbing Miami Center
Thu 09:36:41 AM 26.2128 -80.0508 83° East 244 281 2,600 1,672 Climbing Miami Center
Thu 09:37:19 AM 26.2175 -80.0119 82° East 236 272 3,600 1,745 Climbing Miami Center
Thu 09:37:36 AM 26.2147 -79.9883 97° East 237 273 4,200 1,452 Climbing Miami Center
Thu 09:38:21 AM 26.1950 -79.9494 119° Southeast 225 259 5,100 1,475 Climbing Miami Center
Thu 09:38:37 AM 26.1808 -79.9256 123° Southeast 236 272 5,700 1,279 Climbing Miami Center
Thu 09:39:22 AM 26.1708 -79.8806 104° East 253 291 6,400 1,180 Climbing Miami Center
Thu 09:39:38 AM 26.1728 -79.8506 86° East 266 306 6,900 1,574 Climbing Miami Center
Thu 09:40:23 AM 26.1808 -79.7992 80° East 263 303 8,000 1,925 Climbing Miami Center
Thu 09:41:24 AM 26.1931 -79.6886 83° East 310 357 10,300 1,951 Climbing Miami Center
Thu 09:42:26 AM 26.2042 -79.5997 82° East 339 390 12,000 1,805 Climbing Miami Center
Thu 09:43:27 AM 26.1878 -79.4969 100° East 351 404 14,000 2,115 Climbing Miami Center
Thu 09:44:28 AM 26.1192 -79.3942 127° Southeast 348 400 16,300 2,000 Climbing Miami Center
Thu 09:45:30 AM 26.0636 -79.3064 125° Southeast 348 400 18,100 1,854 Climbing Miami Center
Thu 09:46:31 AM 26.0167 -79.2153 120° Southeast 344 396 20,100 1,918 Climbing Miami Center
Thu 09:47:32 AM 25.9675 -79.1264 122° Southeast 339 390 22,000 1,902 Climbing Miami Center
Thu 09:48:34 AM 25.9214 -79.0386 120° Southeast 334 384 24,000 1,951 Climbing Miami Center
Thu 09:49:35 AM 25.8783 -78.9497 118° Southeast 320 368 26,000 1,475 Climbing Miami Center
Thu 09:50:36 AM 25.8344 -78.8694 121° Southeast 306 352 27,000 492 Climbing Miami Center
Thu 09:51:37 AM 25.7872 -78.7753 119° Southeast 348 400 27,000  Level Miami Center
Thu 09:52:39 AM 25.7281 -78.6639 121° Southeast 386 444 27,000  Level Miami Center
Thu 09:53:40 AM 25.6633 -78.5392 120° Southeast 418 481 27,000  Level Miami Center
Thu 09:54:41 AM 25.6031 -78.4222 120° Southeast 434 499 27,000  Level Miami Center
Thu 09:55:43 AM 25.5408 -78.3044 120° Southeast 441 507 27,000  Level Miami Center
Thu 09:56:44 AM 25.4769 -78.1833 120° Southeast 449 517 27,000  Level Miami Center
Thu 09:57:45 AM 25.4108 -78.0622 121° Southeast 455 524 27,000  Level Miami Center
Thu 09:58:47 AM 25.3383 -77.9283 121° Southeast 457 526 27,000  Level Miami Center
Thu 09:59:48 AM 25.2750 -77.8083 120° Southeast 456 525 27,000  Level Miami Center
Thu 10:00:50 AM 25.2097 -77.6881 121° Southeast 455 524 27,000  Level Miami Center
Thu 10:01:51 AM 25.1453 -77.5683 121° Southeast 455 524 27,000  Level Miami Center
Thu 10:02:53 AM 25.0767 -77.4389 120° Southeast 456 525 27,000  Level Miami Center
Thu 10:03:54 AM 25.0122 -77.3219 121° Southeast 457 526 27,000  Level Miami Center
Thu 10:04:55 AM 24.9472 -77.2033 121° Southeast 454 522 27,000  Level Miami Center
Thu 10:05:57 AM 24.8761 -77.0717 121° Southeast 456 525 27,000  Level Miami Center
Thu 10:06:58 AM 24.8100 -76.9508 121° Southeast 457 526 27,000  Level Miami Center
Thu 10:08:00 AM 24.7444 -76.8314 121° Southeast 457 526 27,000  Level Miami Center
Thu 10:09:01 AM 24.6792 -76.7119 121° Southeast 458 527 27,000  Level Miami Center
Thu 10:10:03 AM 24.6125 -76.5914 121° Southeast 459 528 27,000  Level Miami Center
Thu 10:11:04 AM 24.5389 -76.4594 122° Southeast 459 528 27,000  Level Miami Center
Thu 10:12:06 AM 24.4725 -76.3403 121° Southeast 460 529 27,000  Level Miami Center
Thu 10:13:07 AM 24.4056 -76.2164 121° Southeast 459 528 27,000  Level Miami Center
Thu 10:14:09 AM 24.3375 -76.0956 122° Southeast 464 534 27,000  Level Miami Center
Thu 10:15:11 AM 24.2708 -75.9758 121° Southeast 463 533 27,000  Level Miami Center
Thu 10:16:12 AM 24.2044 -75.8561 121° Southeast 460 529 27,000  Level Miami Center
Thu 10:17:14 AM 24.1364 -75.7369 122° Southeast 459 528 27,000  Level Miami Center
Thu 10:18:15 AM 24.0706 -75.6181 121° Southeast 454 522 27,000  Level Miami Center
Thu 10:19:17 AM 24.0050 -75.4997 121° Southeast 454 522 27,000  Level Miami Center
Thu 10:20:19 AM 23.9369 -75.3817 122° Southeast 454 522 27,000  Level Miami Center
Thu 10:21:20 AM 23.8714 -75.2633 121° Southeast 454 522 27,000  Level Miami Center
Thu 10:22:22 AM 23.7897 -75.1208 122° Southeast 456 525 27,000  Level Miami Center
Thu 10:23:24 AM 23.7222 -75.0019 122° Southeast 456 525 27,000  Level Miami Center
Thu 10:24:25 AM 23.6542 -74.8833 122° Southeast 457 526 27,000  Level Miami Center
Thu 10:25:27 AM 23.5869 -74.7644 122° Southeast 457 526 27,000  Level Miami Center
Thu 10:26:29 AM 23.5175 -74.6467 123° Southeast 457 526 27,000  Level Miami Center
Thu 10:27:31 AM 23.4497 -74.5269 122° Southeast 459 528 27,000  Level Miami Center
Thu 10:28:32 AM 23.3806 -74.4086 122° Southeast 460 529 27,000  Level Miami Center
Thu 10:29:34 AM 23.3111 -74.2906 123° Southeast 461 531 27,000  Level Miami Center
Thu 10:30:36 AM 23.2431 -74.1706 122° Southeast 462 532 27,000  Level Miami Center
Thu 10:31:38 AM 23.1614 -74.0272 122° Southeast 463 533 27,000  Level Miami Center
Thu 10:32:39 AM 23.0906 -73.9081 123° Southeast 464 534 27,000  Level Miami Center
Thu 10:33:41 AM 23.0217 -73.7889 122° Southeast 464 534 27,000  Level Miami Center
Thu 10:34:43 AM 22.9506 -73.6706 123° Southeast 465 535 27,000  Level Miami Center
Thu 10:35:45 AM 22.8803 -73.5517 123° Southeast 466 536 27,000  Level Miami Center
Thu 10:36:46 AM 22.8133 -73.4317 121° Southeast 466 536 27,000  Level Miami Center
Thu 10:37:48 AM 22.7394 -73.3142 124° Southeast 466 536 27,000  Level Miami Center
Thu 10:38:50 AM 22.6594 -73.1708 121° Southeast 466 536 27,000  Level Miami Center
Thu 10:39:52 AM 22.5956 -73.0614 122° Southeast 466 536 27,000  Level Miami Center
Thu 10:40:54 AM 22.5250 -72.9442 123° Southeast 466 536 27,000  Level Miami Center
Thu 10:41:55 AM 22.4561 -72.8267 122° Southeast 466 536 27,000  Level Miami Center
Thu 10:42:57 AM 22.3731 -72.6856 122° Southeast 465 535 27,000  Level Miami Center
Thu 10:43:59 AM 22.3031 -72.5681 123° Southeast 465 535 27,000  Level Miami Center
Thu 10:45:00 AM 22.2339 -72.4503 122° Southeast 465 535 27,000  Level Miami Center
Thu 10:46:02 AM 22.1644 -72.3322 122° Southeast 464 534 27,000  Level Miami Center
Thu 10:47:04 AM 22.0942 -72.2150 123° Southeast 464 534 27,000  Level Miami Center
Thu 10:48:05 AM 22.0239 -72.0981 123° Southeast 464 534 27,000  Level Miami Center
Thu 10:49:07 AM 21.9544 -71.9806 122° Southeast 464 534 27,000  Level Miami Center
Thu 10:50:09 AM 21.8844 -71.8622 123° Southeast 465 535 27,000  Level Miami Center
Thu 10:51:11 AM 21.7997 -71.7208 123° Southeast 465 535 27,000  Level Miami Center
Thu 10:52:12 AM 21.7283 -71.6050 124° Southeast 465 535 27,000  Level Miami Center
Thu 10:53:14 AM 21.6575 -71.4875 123° Southeast 465 535 27,000  Level Miami Center
Thu 10:54:16 AM 21.5867 -71.3722 123° Southeast 465 535 27,000  Level Miami Center
Thu 10:55:17 AM 21.5156 -71.2550 123° Southeast 465 535 27,000  Level Miami Center
Thu 10:56:19 AM 21.4372 -71.1256 123° Southeast 465 535 27,000  Level Miami Center
Thu 10:57:21 AM 21.3394 -71.0317 138° Southeast 471 542 27,000  Level Miami Center
Thu 10:58:23 AM 21.2442 -70.9381 138° Southeast 463 533 27,000  Level Miami Center
Thu 10:59:24 AM 21.1489 -70.8444 137° Southeast 463 533 27,000  Level Miami Center
Thu 11:00:26 AM 21.0539 -70.7514 138° Southeast 463 533 27,000  Level Miami Center
Thu 11:01:28 AM 20.9583 -70.6572 137° Southeast 463 533 27,000  Level Miami Center
Thu 11:02:29 AM 20.8433 -70.5447 138° Southeast 463 533 27,000  Level Miami Center
Thu 11:03:31 AM 20.7478 -70.4514 138° Southeast 463 533 27,000  Level Miami Center
Thu 11:04:33 AM 20.6522 -70.3581 138° Southeast 463 533 27,000  Level Miami Center
Thu 11:05:35 AM 20.5572 -70.2642 137° Southeast 463 533 27,000  Level Miami Center
Thu 11:06:36 AM 20.4614 -70.1711 138° Southeast 463 533 27,000  Level Miami Center
Thu 11:07:38 AM 20.3656 -70.0786 138° Southeast 463 533 27,000  Level Miami Center
Thu 11:08:40 AM 20.2700 -69.9853 137° Southeast 463 533 27,000  Level Miami Center
Thu 11:09:41 AM 20.1731 -69.8919 138° Southeast 464 534 27,000 -146 Level Miami Center
Thu 11:10:43 AM 20.0556 -69.7831 139° Southeast 464 534 26,700 -290 Descending Miami Center
Thu 11:12:00 AM 19.9455 -69.6811 155° Southeast  Level FlightAware Approximate
Thu 11:19:00 AM 19.2219 -69.3275 155° Southeast  Level FlightAware Approximate
Thu 11:20:00 AM 19.1192 -69.2755 152° Southeast  Level FlightAware Approximate
Thu 11:21:00 AM 19.0183 -69.2194 152° Southeast  Level FlightAware Approximate
Thu 11:22:00 AM 18.9142 -69.1712 158° South  Level FlightAware Approximate
Thu 11:23:00 AM 18.8082 -69.1270 158° South  Level FlightAware Approximate
Thu 11:24:00 AM 18.7062 -69.0738 152° Southeast  Level FlightAware Approximate
Thu 11:25:00 AM 18.6049 -69.0191 155° Southeast  Level FlightAware Approximate
Thu 11:26:00 AM 18.5004 -68.9752 155° Southeast  Level FlightAware Approximate
Thu 11:27:00 AM 18.4167 -68.9167 145° Southeast  Level FlightAware Approximate
Thu 11:28:00 AM 18.4507 -68.9118 145° Southeast  Level Estimated
Thu 11:29:00 AM 18.4507 -68.9118 145° Southeast  Level Estimated
Thu 11:30:00 AM 18.4507 -68.9118 145° Southeast  Level Estimated
Thu 11:31:00 AM 18.4507 -68.9118 145° Southeast  Level Estimated
Thu 11:32:00 AM 18.4507 -68.9118 145° Southeast  Level Estimated
Thu 11:33:00 AM 18.4507 -68.9118 145° Southeast  Level Estimated
Thu 11:34:00 AM 18.4507 -68.9118 145° Southeast  Level Estimated
Thu 11:35:00 AM 18.4507 -68.9118 145° Southeast  Level Estimated
Thu 11:36:00 AM 18.4507 -68.9118 145° Southeast  Level Estimated
Thu 11:37:00 AM 18.4507 -68.9118 145° Southeast  Level Estimated
Thu 11:38:00 AM 18.4507 -68.9118 145° Southeast  Level Estimated
Thu 11:39:00 AM 18.4507 -68.9118 145° Southeast  Level Estimated

Login

Don't have an account? Register now (free) for customized features, flight alerts, and more!